Time;durP1;ratioP1;P1;durP2;ratioP2;P2;SDS_P1;SDS_P2;PMS_P1;PMS_P2;Temp;Humidity;BMP_temperature;BMP_pressure;BME280_temperature;BME280_humidity;BME280_pressure;Samples;Min_cycle;Max_cycle;Signal;HPM_P1;HPM_P2
2023/10/10 00:00:49;;;;;;;;;;;19.60;74.30;;;;;;5108778;28;20339;-69
2023/10/10 00:03:17;;;;;;;;;;;19.60;74.30;;;;;;5109879;28;19920;-69
2023/10/10 00:05:43;;;;;;;;;;;19.50;74.30;;;;;;5109601;28;19945;-70
2023/10/10 00:08:10;;;;;;;;;;;19.60;74.30;;;;;;5109677;28;19919;-69
2023/10/10 00:10:43;;;;;;;;;;;19.60;74.30;;;;;;5108174;28;19920;-69
2023/10/10 00:13:11;;;;;;;;;;;19.60;74.30;;;;;;5108571;28;20057;-69
2023/10/10 00:15:40;;;;;;;;;;;19.60;74.30;;;;;;5108190;28;19960;-69
2023/10/10 00:18:11;;;;;;;;;;;19.60;74.30;;;;;;5108283;28;19920;-70
2023/10/10 00:20:41;;;;;;;;;;;19.60;74.30;;;;;;5109362;28;19920;-70
2023/10/10 00:23:10;;;;;;;;;;;19.60;74.30;;;;;;5108284;28;19919;-69
2023/10/10 00:25:37;;;;;;;;;;;19.60;74.30;;;;;;5109692;28;19920;-69
2023/10/10 00:28:08;;;;;;;;;;;19.60;74.30;;;;;;5109413;28;19963;-70
2023/10/10 00:30:42;;;;;;;;;;;19.60;74.40;;;;;;5109056;28;20018;-69
2023/10/10 00:33:09;;;;;;;;;;;19.60;74.40;;;;;;5145604;27;19923;-70
2023/10/10 00:35:35;;;;;;;;;;;19.60;74.40;;;;;;5129501;28;19926;-69
2023/10/10 00:38:05;;;;;;;;;;;19.60;74.40;;;;;;5145547;27;19921;-70
2023/10/10 00:40:31;;;;;;;;;;;19.60;74.40;;;;;;5111325;28;20316;-69
2023/10/10 00:42:58;;;;;;;;;;;19.50;74.30;;;;;;5105758;28;19926;-69
2023/10/10 00:45:28;;;;;;;;;;;19.60;74.40;;;;;;5115709;28;19976;-70
2023/10/10 00:47:54;;;;;;;;;;;19.60;74.40;;;;;;5097467;28;20374;-69
2023/10/10 00:50:25;;;;;;;;;;;19.60;74.40;;;;;;5097621;28;19920;-70
2023/10/10 00:52:55;;;;;;;;;;;19.50;74.40;;;;;;5097158;28;19920;-70
2023/10/10 00:55:24;;;;;;;;;;;19.50;74.40;;;;;;5097653;28;20317;-70
2023/10/10 00:57:53;;;;;;;;;;;19.50;74.40;;;;;;5097436;28;19920;-69
2023/10/10 01:00:30;;;;;;;;;;;19.50;74.40;;;;;;5097120;28;19920;-69
2023/10/10 01:02:57;;;;;;;;;;;19.50;74.40;;;;;;5096918;28;19972;-69
2023/10/10 01:05:32;;;;;;;;;;;19.50;74.40;;;;;;5097247;28;19920;-69
2023/10/10 01:07:59;;;;;;;;;;;19.50;74.40;;;;;;5097238;28;20282;-69
2023/10/10 01:10:24;;;;;;;;;;;19.50;74.40;;;;;;5115366;28;20000;-70
2023/10/10 01:12:50;;;;;;;;;;;19.50;74.50;;;;;;5115030;28;20393;-69
2023/10/10 01:15:24;;;;;;;;;;;19.50;74.50;;;;;;5096928;28;19973;-69
2023/10/10 01:17:50;;;;;;;;;;;19.50;74.40;;;;;;5097114;28;19920;-70
2023/10/10 01:20:20;;;;;;;;;;;19.50;74.40;;;;;;5097096;28;20279;-70
2023/10/10 01:22:47;;;;;;;;;;;19.50;74.50;;;;;;5096964;28;20073;-69
2023/10/10 01:25:46;;;;;;;;;;;19.50;74.50;;;;;;5097097;28;19926;-69
2023/10/10 01:28:02;;;;;;;;;;;19.50;74.50;;;;;;5114744;28;19926;-69
2023/10/10 01:30:43;;;;;;;;;;;19.50;74.50;;;;;;5114882;28;19975;-69
2023/10/10 01:33:14;;;;;;;;;;;19.50;74.50;;;;;;5096575;28;19923;-70
2023/10/10 01:35:41;;;;;;;;;;;19.50;74.50;;;;;;5114766;28;20018;-70
2023/10/10 01:38:13;;;;;;;;;;;19.50;74.50;;;;;;5096475;28;19920;-70
2023/10/10 01:40:39;;;;;;;;;;;19.50;74.50;;;;;;5096618;28;20445;-69
2023/10/10 01:43:10;;;;;;;;;;;19.50;74.50;;;;;;5096599;28;19977;-69
2023/10/10 01:45:41;;;;;;;;;;;19.50;74.60;;;;;;5096628;28;20300;-69
2023/10/10 01:48:08;;;;;;;;;;;19.40;74.50;;;;;;5096165;28;19920;-69
2023/10/10 01:50:34;;;;;;;;;;;19.50;74.60;;;;;;5096548;28;19919;-70
2023/10/10 01:53:00;;;;;;;;;;;19.40;74.50;;;;;;5114195;28;19920;-69
2023/10/10 01:55:25;;;;;;;;;;;19.40;74.50;;;;;;5095400;28;19947;-70
2023/10/10 01:57:51;;;;;;;;;;;19.50;74.60;;;;;;5096327;28;19919;-70
2023/10/10 02:00:25;;;;;;;;;;;19.40;74.50;;;;;;5096038;28;19920;-70
2023/10/10 02:02:53;;;;;;;;;;;19.50;74.60;;;;;;5096198;28;19920;-70
2023/10/10 02:05:51;;;;;;;;;;;19.50;74.60;;;;;;5114199;28;19927;-69
2023/10/10 02:08:09;;;;;;;;;;;19.50;74.60;;;;;;5095836;28;19924;-69
2023/10/10 02:10:36;;;;;;;;;;;19.40;74.60;;;;;;5095786;28;19920;-69
2023/10/10 02:13:06;;;;;;;;;;;19.40;74.50;;;;;;5095725;28;19931;-69
2023/10/10 02:15:35;;;;;;;;;;;19.50;74.60;;;;;;5095692;28;19924;-70
2023/10/10 02:18:04;;;;;;;;;;;19.40;74.50;;;;;;5095493;28;19924;-70
2023/10/10 02:26:03;;;;;;;;;;;19.40;74.50;;;;;;5109133;28;19919;-69
2023/10/10 02:28:47;;;;;;;;;;;19.40;74.60;;;;;;5108907;28;19920;-70
2023/10/10 02:31:15;;;;;;;;;;;19.50;74.60;;;;;;5109129;28;19920;-70
2023/10/10 02:33:48;;;;;;;;;;;19.40;74.50;;;;;;5109190;28;20010;-69
2023/10/10 02:36:15;;;;;;;;;;;19.40;74.60;;;;;;5109025;28;19924;-69
2023/10/10 02:38:53;;;;;;;;;;;19.40;74.50;;;;;;5108781;28;20071;-69
2023/10/10 02:46:42;;;;;;;;;;;19.40;74.50;;;;;;5110280;27;20359;-69
2023/10/10 02:51:48;;;;;;;;;;;19.40;74.60;;;;;;5089893;28;19919;-69
2023/10/10 02:54:33;;;;;;;;;;;19.40;74.50;;;;;;5089835;28;19920;-69
2023/10/10 02:57:26;;;;;;;;;;;19.40;74.60;;;;;;5088600;28;19926;-69
2023/10/10 02:59:50;;;;;;;;;;;19.40;74.60;;;;;;5088607;28;19920;-70
2023/10/10 03:02:21;;;;;;;;;;;19.50;74.60;;;;;;5088759;28;20364;-69
2023/10/10 03:07:51;;;;;;;;;;;20.10;73.40;;;;;;5110337;27;19919;-70
2023/10/10 03:10:39;;;;;;;;;;;20.60;72.10;;;;;;5108939;28;19966;-70
2023/10/10 03:13:05;;;;;;;;;;;21.20;70.60;;;;;;5109056;28;19920;-69
2023/10/10 03:15:33;;;;;;;;;;;22.00;68.50;;;;;;5108852;28;19927;-69
2023/10/10 03:18:30;;;;;;;;;;;22.60;66.60;;;;;;5110209;28;19927;-70
2023/10/10 03:23:52;;;;;;;;;;;23.70;63.00;;;;;;5130875;27;19918;-69
2023/10/10 03:26:19;;;;;;;;;;;24.20;61.80;;;;;;5129187;28;19959;-70
2023/10/10 03:28:47;;;;;;;;;;;24.40;60.90;;;;;;5129350;28;20272;-70
2023/10/10 03:34:19;;;;;;;;;;;24.60;60.30;;;;;;5105616;27;20364;-69
2023/10/10 03:36:45;;;;;;;;;;;24.50;60.20;;;;;;5088388;28;19963;-70
2023/10/10 03:39:21;;;;;;;;;;;24.30;60.40;;;;;;5089080;28;19920;-69
2023/10/10 05:23:58;;;;;;;;;;;21.40;67.70;;;;;;5076668;28;20352;-70
2023/10/10 05:26:24;;;;;;;;;;;21.40;67.70;;;;;;5094889;28;20332;-70
2023/10/10 05:28:50;;;;;;;;;;;21.40;67.70;;;;;;5076320;28;20002;-70
2023/10/10 05:31:19;;;;;;;;;;;21.50;67.70;;;;;;5076580;28;19920;-70
2023/10/10 05:33:47;;;;;;;;;;;21.40;67.60;;;;;;5076372;28;20271;-69
2023/10/10 05:36:13;;;;;;;;;;;21.40;67.50;;;;;;5075599;28;20028;-69
2023/10/10 05:38:39;;;;;;;;;;;21.50;67.60;;;;;;5073594;28;20041;-70
2023/10/10 05:41:06;;;;;;;;;;;21.40;67.50;;;;;;5092244;28;20379;-70
2023/10/10 05:43:33;;;;;;;;;;;21.50;67.50;;;;;;5091778;28;20439;-71
2023/10/10 05:45:59;;;;;;;;;;;21.40;67.50;;;;;;5091378;28;19927;-70
2023/10/10 05:48:26;;;;;;;;;;;21.40;67.70;;;;;;5092320;28;19924;-70
2023/10/10 05:50:53;;;;;;;;;;;21.40;67.80;;;;;;5087423;28;19924;-72
2023/10/10 05:53:20;;;;;;;;;;;21.30;67.90;;;;;;5073561;28;20389;-70
2023/10/10 05:55:53;;;;;;;;;;;21.40;68.10;;;;;;5071194;28;19920;-72
2023/10/10 05:58:19;;;;;;;;;;;21.40;68.10;;;;;;5072675;28;19950;-74
2023/10/10 06:00:48;;;;;;;;;;;21.40;68.20;;;;;;5070915;28;20391;-73
2023/10/10 06:03:16;;;;;;;;;;;21.40;68.10;;;;;;5079734;28;19966;-73
2023/10/10 06:05:44;;;;;;;;;;;21.40;68.10;;;;;;5069695;28;19929;-73
2023/10/10 06:08:10;;;;;;;;;;;21.30;68.10;;;;;;5068633;28;19920;-80
2023/10/10 06:10:36;;;;;;;;;;;21.40;68.30;;;;;;5084485;28;19927;-71
2023/10/10 06:13:03;;;;;;;;;;;21.30;68.40;;;;;;5061326;28;20421;-69
2023/10/10 06:15:33;;;;;;;;;;;21.30;68.40;;;;;;5082725;28;19934;-68
2023/10/10 06:18:08;;;;;;;;;;;21.40;68.40;;;;;;5065117;28;19925;-69
2023/10/10 06:20:40;;;;;;;;;;;21.40;68.30;;;;;;5082179;28;19951;-71
2023/10/10 06:23:06;;;;;;;;;;;21.40;68.10;;;;;;5085831;28;19920;-69
2023/10/10 06:25:32;;;;;;;;;;;21.40;68.10;;;;;;5077781;28;19928;-69
2023/10/10 06:28:00;;;;;;;;;;;21.40;68.00;;;;;;5072432;28;20968;-68
2023/10/10 06:30:26;;;;;;;;;;;21.50;68.00;;;;;;5068419;28;19931;-72
2023/10/10 06:32:58;;;;;;;;;;;21.50;68.00;;;;;;5058783;28;19928;-72
2023/10/10 06:38:12;;;;;;;;;;;21.50;68.00;;;;;;5084413;27;19916;-69
2023/10/10 06:40:52;;;;;;;;;;;21.50;68.00;;;;;;5078327;28;20038;-71
2023/10/10 06:43:19;;;;;;;;;;;21.50;68.00;;;;;;5077593;28;20364;-69
2023/10/10 06:45:52;;;;;;;;;;;21.40;68.10;;;;;;5077486;28;19955;-72
2023/10/10 06:48:21;;;;;;;;;;;21.40;68.20;;;;;;5094158;28;19924;-71
2023/10/10 06:50:49;;;;;;;;;;;21.40;68.30;;;;;;5078838;28;20403;-73
2023/10/10 06:53:28;;;;;;;;;;;21.40;69.10;;;;;;5072662;28;19960;-72
2023/10/10 06:55:54;;;;;;;;;;;21.40;68.40;;;;;;5076063;28;19924;-75
2023/10/10 06:58:20;;;;;;;;;;;21.40;68.40;;;;;;5078164;28;19925;-72
2023/10/10 07:00:45;;;;;;;;;;;21.40;68.50;;;;;;5079567;28;20311;-72
2023/10/10 07:03:17;;;;;;;;;;;21.40;68.40;;;;;;5075590;28;19924;-73
2023/10/10 07:05:42;;;;;;;;;;;21.40;68.40;;;;;;5103943;28;19931;-71
2023/10/10 07:08:39;;;;;;;;;;;21.40;68.30;;;;;;5074704;28;19932;-72
2023/10/10 07:10:53;;;;;;;;;;;21.50;68.40;;;;;;5072973;28;19970;-70
2023/10/10 07:13:21;;;;;;;;;;;21.50;68.30;;;;;;5076533;28;19964;-70
2023/10/10 07:15:51;;;;;;;;;;;21.40;68.30;;;;;;5076482;28;19966;-69
2023/10/10 07:18:25;;;;;;;;;;;21.50;68.50;;;;;;5074821;28;19932;-70
2023/10/10 07:21:08;;;;;;;;;;;21.50;68.40;;;;;;5108221;28;19933;-70
2023/10/10 07:23:37;;;;;;;;;;;21.40;68.40;;;;;;5077491;28;20393;-70
2023/10/10 07:26:05;;;;;;;;;;;21.40;68.50;;;;;;5080995;28;19935;-70
2023/10/10 07:28:36;;;;;;;;;;;21.40;68.60;;;;;;5075128;28;20545;-67
2023/10/10 07:31:02;;;;;;;;;;;21.40;68.70;;;;;;5075881;28;19920;-70
2023/10/10 07:33:40;;;;;;;;;;;21.40;68.70;;;;;;5106497;28;20031;-71
2023/10/10 07:36:06;;;;;;;;;;;21.40;68.90;;;;;;5077044;28;19929;-69
2023/10/10 07:38:35;;;;;;;;;;;21.40;69.10;;;;;;5074153;28;20393;-70
2023/10/10 07:41:04;;;;;;;;;;;21.40;69.00;;;;;;5071549;28;19987;-69
2023/10/10 07:43:34;;;;;;;;;;;21.40;69.00;;;;;;5103717;28;19924;-69
2023/10/10 07:46:12;;;;;;;;;;;21.40;69.00;;;;;;5076318;28;19924;-71
2023/10/10 07:48:39;;;;;;;;;;;21.30;68.90;;;;;;5063179;28;20411;-73
2023/10/10 07:51:06;;;;;;;;;;;21.40;69.00;;;;;;5057987;28;20423;-72
2023/10/10 07:53:40;;;;;;;;;;;21.30;69.00;;;;;;5058445;28;19931;-72
2023/10/10 07:56:06;;;;;;;;;;;21.30;69.10;;;;;;5063699;28;20325;-72
2023/10/10 07:58:49;;;;;;;;;;;21.30;69.10;;;;;;5092994;28;19999;-72
2023/10/10 08:01:16;;;;;;;;;;;21.30;69.10;;;;;;5064627;28;19928;-82
2023/10/10 08:03:44;;;;;;;;;;;21.30;69.10;;;;;;5059563;28;19959;-81
2023/10/10 08:06:10;;;;;;;;;;;21.30;69.10;;;;;;5058767;28;19930;-79
2023/10/10 08:08:36;;;;;;;;;;;21.30;69.10;;;;;;5056718;28;20242;-78
2023/10/10 08:11:06;;;;;;;;;;;21.30;69.20;;;;;;5090151;28;19927;-75
2023/10/10 08:13:32;;;;;;;;;;;21.30;69.20;;;;;;5062994;28;19924;-71
2023/10/10 08:16:02;;;;;;;;;;;21.30;69.20;;;;;;5060330;28;20383;-74
2023/10/10 08:19:04;;;;;;;;;;;21.30;69.30;;;;;;5078326;28;20023;-73
2023/10/10 08:21:14;;;;;;;;;;;21.30;69.40;;;;;;5065522;28;20166;-72
2023/10/10 08:23:43;;;;;;;;;;;21.30;69.40;;;;;;5059750;28;19928;-70
2023/10/10 08:26:12;;;;;;;;;;;21.30;69.40;;;;;;5065073;28;19943;-71
2023/10/10 08:28:37;;;;;;;;;;;21.40;69.40;;;;;;5060659;28;19920;-72
2023/10/10 08:31:03;;;;;;;;;;;21.40;69.50;;;;;;5061107;28;20300;-74
2023/10/10 08:33:32;;;;;;;;;;;21.40;69.50;;;;;;5060860;28;20330;-72
2023/10/10 08:35:58;;;;;;;;;;;21.40;69.50;;;;;;5061562;28;19928;-72
2023/10/10 08:38:23;;;;;;;;;;;21.40;69.60;;;;;;5081752;28;19935;-71
2023/10/10 08:40:57;;;;;;;;;;;21.40;69.60;;;;;;5064284;28;19950;-71
2023/10/10 08:43:26;;;;;;;;;;;21.40;69.70;;;;;;5081758;28;19920;-72
2023/10/10 08:45:54;;;;;;;;;;;21.30;69.70;;;;;;5086065;28;20391;-71
2023/10/10 08:48:26;;;;;;;;;;;21.30;69.80;;;;;;5059624;28;19939;-73
2023/10/10 08:50:52;;;;;;;;;;;21.30;69.80;;;;;;5078948;28;20366;-70
2023/10/10 08:53:20;;;;;;;;;;;21.30;69.80;;;;;;5092470;28;20150;-70
2023/10/10 08:55:56;;;;;;;;;;;21.20;69.90;;;;;;5062274;28;19975;-70
2023/10/10 08:58:22;;;;;;;;;;;21.20;70.00;;;;;;5082812;28;19931;-71
2023/10/10 09:00:48;;;;;;;;;;;21.20;70.10;;;;;;5090884;28;19924;-69
2023/10/10 09:03:13;;;;;;;;;;;21.20;70.20;;;;;;5066499;28;19920;-70
2023/10/10 09:05:39;;;;;;;;;;;21.20;70.30;;;;;;5094979;28;19924;-72
2023/10/10 09:08:14;;;;;;;;;;;21.20;70.40;;;;;;5064537;28;19971;-73
2023/10/10 09:10:40;;;;;;;;;;;21.20;70.50;;;;;;5068640;28;19928;-76
2023/10/10 09:13:07;;;;;;;;;;;21.20;70.50;;;;;;5094289;28;19927;-80
2023/10/10 09:15:36;;;;;;;;;;;21.20;70.60;;;;;;5062441;28;19931;-72
2023/10/10 09:18:22;;;;;;;;;;;21.20;70.60;;;;;;5064349;28;19939;-72
2023/10/10 09:20:47;;;;;;;;;;;21.20;70.70;;;;;;5078666;28;20403;-75
2023/10/10 09:23:22;;;;;;;;;;;21.20;70.70;;;;;;5066218;28;19920;-74
2023/10/10 09:25:57;;;;;;;;;;;21.20;70.80;;;;;;5062564;28;19928;-73
2023/10/10 09:28:30;;;;;;;;;;;21.20;70.80;;;;;;5080960;28;20030;-73
2023/10/10 09:30:59;;;;;;;;;;;21.20;70.90;;;;;;5061153;28;20478;-74
2023/10/10 09:33:33;;;;;;;;;;;21.20;70.90;;;;;;5063354;28;19960;-75
2023/10/10 09:36:38;;;;;;;;;;;21.20;71.00;;;;;;5083906;28;20472;-73
2023/10/10 09:38:47;;;;;;;;;;;21.10;70.90;;;;;;5063668;28;20133;-74
2023/10/10 09:41:14;;;;;;;;;;;21.10;71.00;;;;;;5078028;28;20323;-75
2023/10/10 09:43:49;;;;;;;;;;;21.10;71.10;;;;;;5078602;28;19919;-76
2023/10/10 09:46:19;;;;;;;;;;;21.00;71.20;;;;;;5058511;28;19923;-71
2023/10/10 09:49:16;;;;;;;;;;;21.00;71.30;;;;;;5061177;28;19948;-71
2023/10/10 09:54:25;;;;;;;;;;;21.00;71.80;;;;;;5065518;28;19928;-73
2023/10/10 09:56:51;;;;;;;;;;;21.00;72.00;;;;;;5060270;28;19977;-74
2023/10/10 09:59:19;;;;;;;;;;;21.00;72.20;;;;;;5061318;28;20029;-70
2023/10/10 10:01:46;;;;;;;;;;;21.00;72.30;;;;;;5078530;28;19924;-71
2023/10/10 10:04:18;;;;;;;;;;;21.00;72.50;;;;;;5079252;28;19924;-75
2023/10/10 10:06:57;;;;;;;;;;;21.00;72.50;;;;;;5058264;28;19931;-72
2023/10/10 10:12:30;;;;;;;;;;;21.00;72.70;;;;;;5074749;28;19929;-74
2023/10/10 10:17:47;;;;;;;;;;;21.00;73.00;;;;;;5092277;27;19916;-76
2023/10/10 10:26:22;;;;;;;;;;;21.00;73.30;;;;;;5094096;27;19931;-75
2023/10/10 10:28:56;;;;;;;;;;;21.00;73.30;;;;;;5076924;28;19924;-73
2023/10/10 10:31:29;;;;;;;;;;;21.00;73.30;;;;;;5079053;28;19970;-74
2023/10/10 10:34:23;;;;;;;;;;;20.90;73.20;;;;;;5081337;28;19925;-71
2023/10/10 10:36:55;;;;;;;;;;;21.00;73.40;;;;;;5124934;27;19934;-74
2023/10/10 10:39:25;;;;;;;;;;;20.90;73.40;;;;;;5089942;28;19928;-73
2023/10/10 10:42:00;;;;;;;;;;;20.90;73.40;;;;;;5092416;28;19928;-74
2023/10/10 10:44:44;;;;;;;;;;;20.90;73.50;;;;;;5088649;28;19955;-76
2023/10/10 10:47:11;;;;;;;;;;;20.90;73.50;;;;;;5094578;28;20435;-73
2023/10/10 10:49:38;;;;;;;;;;;20.90;73.30;;;;;;5080739;28;19997;-72
2023/10/10 10:52:21;;;;;;;;;;;20.90;73.40;;;;;;5076038;28;20160;-76
2023/10/10 10:54:59;;;;;;;;;;;20.90;73.30;;;;;;5089195;28;19946;-71
2023/10/10 10:57:40;;;;;;;;;;;20.80;73.40;;;;;;5087106;28;19970;-70
2023/10/10 11:00:41;;;;;;;;;;;20.80;73.40;;;;;;5081929;28;19925;-70
2023/10/10 11:03:11;;;;;;;;;;;20.80;73.50;;;;;;5082902;28;19970;-70
2023/10/10 11:05:38;;;;;;;;;;;20.80;73.50;;;;;;5084412;28;19932;-72
2023/10/10 11:08:11;;;;;;;;;;;20.80;73.70;;;;;;5083796;28;19928;-70
2023/10/10 11:10:37;;;;;;;;;;;20.80;73.80;;;;;;5072542;28;20392;-72
2023/10/10 11:13:07;;;;;;;;;;;20.80;73.90;;;;;;5115472;27;19963;-75
2023/10/10 11:15:43;;;;;;;;;;;20.80;73.90;;;;;;5076989;28;19920;-72
2023/10/10 11:18:09;;;;;;;;;;;20.80;74.10;;;;;;5080492;28;20155;-74
2023/10/10 11:20:55;;;;;;;;;;;20.80;74.30;;;;;;5087562;28;19920;-75
2023/10/10 11:23:21;;;;;;;;;;;20.80;74.30;;;;;;5079708;28;19934;-76
2023/10/10 11:26:00;;;;;;;;;;;20.70;74.30;;;;;;5080870;28;20557;-74
2023/10/10 11:28:36;;;;;;;;;;;20.70;74.30;;;;;;5085208;28;19931;-72
2023/10/10 11:31:07;;;;;;;;;;;20.80;74.40;;;;;;5109165;27;20536;-72
2023/10/10 11:33:46;;;;;;;;;;;20.70;74.30;;;;;;5076358;28;19924;-75
2023/10/10 11:36:37;;;;;;;;;;;20.70;74.40;;;;;;5069039;28;20051;-75
2023/10/10 11:39:19;;;;;;;;;;;20.70;74.40;;;;;;5074492;28;20404;-78
2023/10/10 11:41:46;;;;;;;;;;;20.70;74.60;;;;;;5096146;27;20032;-73
2023/10/10 11:44:16;;;;;;;;;;;20.70;74.50;;;;;;5066719;28;19938;-78
2023/10/10 11:46:55;;;;;;;;;;;20.80;74.60;;;;;;5065445;28;20453;-69
2023/10/10 11:49:21;;;;;;;;;;;20.80;74.40;;;;;;5093724;27;19932;-68
2023/10/10 11:51:56;;;;;;;;;;;20.90;74.80;;;;;;5065461;28;19925;-67
2023/10/10 11:54:29;;;;;;;;;;;20.90;74.90;;;;;;5099411;27;19973;-72
2023/10/10 11:56:56;;;;;;;;;;;20.90;75.00;;;;;;5065056;28;19924;-74
2023/10/10 11:59:23;;;;;;;;;;;20.90;75.10;;;;;;5092382;27;20003;-73
2023/10/10 12:01:51;;;;;;;;;;;21.00;74.90;;;;;;5056873;28;19921;-77
2023/10/10 12:04:30;;;;;;;;;;;21.00;74.70;;;;;;5071312;28;19951;-71
2023/10/10 12:06:58;;;;;;;;;;;21.00;74.50;;;;;;5062533;28;20039;-70
2023/10/10 12:09:26;;;;;;;;;;;21.00;74.50;;;;;;5066001;28;19920;-74
2023/10/10 12:11:58;;;;;;;;;;;21.10;74.70;;;;;;5066854;28;19928;-72
2023/10/10 12:14:25;;;;;;;;;;;21.10;74.80;;;;;;5050740;28;20374;-73
2023/10/10 12:17:05;;;;;;;;;;;21.10;74.70;;;;;;5053565;28;19928;-72
2023/10/10 12:19:36;;;;;;;;;;;21.10;74.50;;;;;;5059619;28;19921;-71
2023/10/10 12:22:10;;;;;;;;;;;21.10;74.50;;;;;;5058994;28;19969;-70
2023/10/10 12:24:36;;;;;;;;;;;21.20;74.60;;;;;;5088236;27;19975;-76
2023/10/10 12:27:01;;;;;;;;;;;21.20;74.80;;;;;;5061598;28;20019;-71
2023/10/10 12:29:30;;;;;;;;;;;21.20;74.80;;;;;;5060368;28;19936;-73
2023/10/10 12:31:56;;;;;;;;;;;21.20;74.80;;;;;;5055415;28;20283;-69
2023/10/10 12:34:22;;;;;;;;;;;21.20;74.60;;;;;;5063173;28;20031;-75
2023/10/10 12:36:49;;;;;;;;;;;21.20;74.90;;;;;;5061398;28;20242;-73
2023/10/10 12:39:15;;;;;;;;;;;21.30;74.80;;;;;;5062846;28;20278;-70
2023/10/10 12:41:46;;;;;;;;;;;21.30;74.50;;;;;;5094004;27;20343;-71
2023/10/10 12:44:12;;;;;;;;;;;21.30;74.60;;;;;;5065691;28;19924;-79
2023/10/10 12:46:40;;;;;;;;;;;21.30;74.60;;;;;;5069128;28;20262;-68
2023/10/10 12:49:06;;;;;;;;;;;21.30;74.60;;;;;;5058608;28;19928;-72
2023/10/10 12:51:31;;;;;;;;;;;21.30;74.80;;;;;;5051885;28;19928;-70
2023/10/10 12:54:01;;;;;;;;;;;21.30;74.80;;;;;;5067123;28;19924;-71
2023/10/10 12:56:26;;;;;;;;;;;21.40;74.50;;;;;;5067895;28;19924;-72
2023/10/10 12:58:52;;;;;;;;;;;21.40;74.60;;;;;;5052839;28;19934;-69
2023/10/10 13:01:22;;;;;;;;;;;21.40;74.70;;;;;;5066123;28;20372;-72
2023/10/10 13:03:48;;;;;;;;;;;21.40;75.00;;;;;;5060651;28;19920;-72
2023/10/10 13:06:14;;;;;;;;;;;21.40;74.80;;;;;;5061240;28;19943;-72
2023/10/10 13:08:48;;;;;;;;;;;21.40;74.80;;;;;;5062361;28;19920;-72
2023/10/10 13:11:16;;;;;;;;;;;21.40;74.70;;;;;;5079853;28;19921;-71
2023/10/10 13:13:45;;;;;;;;;;;21.40;74.70;;;;;;5087218;28;20178;-72
2023/10/10 13:18:57;;;;;;;;;;;21.40;75.00;;;;;;5064368;28;19920;-72
2023/10/10 13:21:23;;;;;;;;;;;21.40;74.60;;;;;;5060481;28;19924;-71
2023/10/10 13:23:49;;;;;;;;;;;21.40;74.60;;;;;;5056155;28;19943;-70
2023/10/10 13:26:16;;;;;;;;;;;21.30;74.50;;;;;;5091595;27;19936;-76
2023/10/10 13:28:44;;;;;;;;;;;21.30;74.50;;;;;;5061691;28;19920;-74
2023/10/10 13:31:12;;;;;;;;;;;21.30;74.60;;;;;;5064340;28;20330;-74
2023/10/10 13:33:39;;;;;;;;;;;21.30;74.50;;;;;;5068005;28;19951;-75
2023/10/10 13:36:05;;;;;;;;;;;21.30;74.60;;;;;;5063270;28;19928;-72
2023/10/10 13:38:31;;;;;;;;;;;21.30;74.50;;;;;;5064753;28;19959;-75
2023/10/10 13:41:01;;;;;;;;;;;21.30;74.60;;;;;;5069756;28;20268;-75
2023/10/10 13:43:27;;;;;;;;;;;21.30;74.70;;;;;;5069152;28;19924;-73
2023/10/10 13:45:57;;;;;;;;;;;21.20;74.60;;;;;;5068450;28;19931;-73
2023/10/10 13:48:24;;;;;;;;;;;21.30;74.70;;;;;;5099245;27;19928;-73
2023/10/10 13:50:51;;;;;;;;;;;21.20;74.60;;;;;;5072141;28;19956;-72
2023/10/10 13:53:17;;;;;;;;;;;21.20;74.60;;;;;;5072418;28;19920;-73
2023/10/10 13:55:43;;;;;;;;;;;21.20;74.50;;;;;;5069879;28;19927;-73
2023/10/10 13:58:11;;;;;;;;;;;21.20;74.50;;;;;;5040359;28;19923;-73
2023/10/10 14:00:38;;;;;;;;;;;21.20;74.50;;;;;;5064136;28;19961;-73
2023/10/10 14:03:04;;;;;;;;;;;21.20;74.50;;;;;;5065054;28;19925;-73
2023/10/10 14:05:32;;;;;;;;;;;21.20;74.50;;;;;;5071028;28;19928;-72
2023/10/10 14:07:58;;;;;;;;;;;21.20;74.50;;;;;;5056850;28;19924;-73
2023/10/10 14:10:23;;;;;;;;;;;21.20;74.50;;;;;;5070558;28;19970;-73
2023/10/10 14:12:50;;;;;;;;;;;21.20;74.50;;;;;;5066610;28;19936;-74
2023/10/10 14:15:18;;;;;;;;;;;21.20;74.50;;;;;;5063760;28;19920;-73
2023/10/10 14:17:46;;;;;;;;;;;21.20;74.50;;;;;;5063753;28;19928;-74
2023/10/10 14:20:20;;;;;;;;;;;21.20;74.50;;;;;;5071097;28;19928;-74
2023/10/10 14:22:49;;;;;;;;;;;21.20;74.50;;;;;;5062933;28;19920;-74
2023/10/10 14:25:15;;;;;;;;;;;21.20;74.60;;;;;;5062503;28;19928;-77
2023/10/10 14:27:43;;;;;;;;;;;21.20;74.60;;;;;;5059753;28;20644;-75
2023/10/10 14:30:20;;;;;;;;;;;21.20;74.60;;;;;;5067928;28;20283;-75
2023/10/10 14:32:53;;;;;;;;;;;21.20;74.50;;;;;;5064035;28;19950;-74
2023/10/10 14:35:22;;;;;;;;;;;21.20;74.60;;;;;;5068380;28;19921;-73
2023/10/10 14:37:50;;;;;;;;;;;21.20;74.70;;;;;;5065479;28;19920;-73
2023/10/10 14:40:16;;;;;;;;;;;21.20;74.80;;;;;;5070065;28;19931;-75
2023/10/10 14:42:41;;;;;;;;;;;21.20;74.70;;;;;;5061807;28;19920;-73
2023/10/10 14:45:07;;;;;;;;;;;21.20;74.90;;;;;;5073086;28;20192;-74
2023/10/10 14:47:36;;;;;;;;;;;21.10;74.90;;;;;;5062479;28;19920;-74
2023/10/10 14:50:07;;;;;;;;;;;21.10;75.00;;;;;;5065754;28;19925;-73
2023/10/10 14:52:39;;;;;;;;;;;21.10;74.90;;;;;;5074983;28;19927;-74
2023/10/10 14:55:18;;;;;;;;;;;21.10;75.00;;;;;;5067808;28;19928;-74
2023/10/10 14:57:43;;;;;;;;;;;21.00;74.90;;;;;;5068528;28;19928;-73
2023/10/10 15:00:17;;;;;;;;;;;21.00;75.00;;;;;;5059566;28;19943;-73
2023/10/10 15:02:43;;;;;;;;;;;21.00;75.00;;;;;;5088278;28;19924;-73
2023/10/10 15:05:10;;;;;;;;;;;21.00;75.00;;;;;;5064074;28;20387;-73
2023/10/10 15:07:41;;;;;;;;;;;21.00;75.00;;;;;;5068100;28;20246;-73
2023/10/10 15:10:07;;;;;;;;;;;21.00;75.00;;;;;;5067869;28;20307;-73
2023/10/10 15:12:33;;;;;;;;;;;21.00;75.00;;;;;;5056955;28;19924;-73
2023/10/10 15:15:00;;;;;;;;;;;20.90;75.00;;;;;;5074821;28;19920;-73
2023/10/10 15:17:27;;;;;;;;;;;20.90;75.00;;;;;;5077518;28;19916;-74
2023/10/10 15:19:52;;;;;;;;;;;20.90;75.00;;;;;;5071541;28;19985;-74
2023/10/10 15:22:18;;;;;;;;;;;20.90;75.00;;;;;;5086704;28;19924;-73
2023/10/10 15:24:50;;;;;;;;;;;20.90;75.00;;;;;;5083360;28;20367;-73
2023/10/10 15:27:17;;;;;;;;;;;20.90;75.00;;;;;;5071152;28;19923;-73
2023/10/10 15:29:43;;;;;;;;;;;20.90;75.00;;;;;;5071619;28;20003;-73
2023/10/10 15:32:09;;;;;;;;;;;20.90;75.00;;;;;;5074798;28;20015;-73
2023/10/10 15:34:34;;;;;;;;;;;20.90;75.00;;;;;;5085060;28;19982;-73
2023/10/10 15:37:00;;;;;;;;;;;20.90;75.00;;;;;;5087088;28;20067;-74
2023/10/10 15:39:26;;;;;;;;;;;20.90;75.00;;;;;;5076321;28;20388;-73
2023/10/10 15:41:51;;;;;;;;;;;20.90;75.00;;;;;;5072998;28;19927;-73
2023/10/10 15:44:17;;;;;;;;;;;20.90;75.80;;;;;;5074188;28;19924;-73
2023/10/10 15:46:44;;;;;;;;;;;20.90;75.00;;;;;;5074713;28;19926;-73
2023/10/10 15:49:12;;;;;;;;;;;20.90;75.00;;;;;;5072162;28;19920;-73
2023/10/10 15:51:38;;;;;;;;;;;20.90;75.00;;;;;;5072683;28;19920;-73
2023/10/10 15:54:05;;;;;;;;;;;20.90;75.00;;;;;;5074094;28;20011;-73
2023/10/10 15:56:30;;;;;;;;;;;20.80;75.00;;;;;;5073351;28;19929;-77
2023/10/10 15:58:56;;;;;;;;;;;20.80;74.90;;;;;;5072342;28;19921;-73
2023/10/10 16:01:31;;;;;;;;;;;20.80;74.90;;;;;;5073800;28;19928;-73
2023/10/10 16:04:00;;;;;;;;;;;20.80;74.90;;;;;;5072570;28;19928;-73
2023/10/10 16:06:27;;;;;;;;;;;20.80;74.90;;;;;;5072816;28;19916;-73
2023/10/10 16:08:53;;;;;;;;;;;20.80;74.90;;;;;;5073367;28;20356;-73
2023/10/10 16:11:19;;;;;;;;;;;20.90;75.00;;;;;;5072118;28;19948;-73
2023/10/10 16:13:46;;;;;;;;;;;20.80;74.90;;;;;;5072782;28;20434;-73
2023/10/10 16:16:13;;;;;;;;;;;20.80;74.90;;;;;;5072437;28;19970;-73
2023/10/10 16:18:39;;;;;;;;;;;20.80;74.80;;;;;;5073602;28;20281;-74
2023/10/10 16:21:08;;;;;;;;;;;20.80;74.80;;;;;;5106504;28;19959;-73
2023/10/10 16:23:35;;;;;;;;;;;20.80;74.80;;;;;;5105813;28;19917;-73
2023/10/10 16:26:04;;;;;;;;;;;20.80;74.80;;;;;;5106187;28;19924;-73
2023/10/10 16:28:35;;;;;;;;;;;20.80;74.80;;;;;;5105896;28;20168;-73
2023/10/10 16:31:03;;;;;;;;;;;20.80;74.80;;;;;;5106063;28;20425;-73
2023/10/10 16:33:28;;;;;;;;;;;20.80;74.80;;;;;;5073961;28;19917;-73
2023/10/10 16:35:56;;;;;;;;;;;20.80;74.80;;;;;;5074287;28;19920;-73
2023/10/10 16:38:21;;;;;;;;;;;20.80;74.80;;;;;;5106021;28;19920;-73
2023/10/10 16:40:50;;;;;;;;;;;20.80;74.80;;;;;;5106476;28;19921;-73
2023/10/10 16:43:17;;;;;;;;;;;20.80;74.70;;;;;;5106753;28;19962;-73
2023/10/10 16:45:43;;;;;;;;;;;20.70;74.70;;;;;;5106119;28;19963;-73
2023/10/10 16:48:08;;;;;;;;;;;20.80;74.70;;;;;;5105872;28;19964;-73
2023/10/10 16:50:34;;;;;;;;;;;20.80;74.80;;;;;;5105492;28;20275;-73
2023/10/10 16:53:00;;;;;;;;;;;20.70;74.70;;;;;;5105976;28;19955;-73
2023/10/10 16:55:26;;;;;;;;;;;20.80;74.70;;;;;;5073745;28;19920;-73